createdAt,value
2022-12-29T00:00:49.686Z,3.10
2022-12-29T00:03:16.613Z,3.45
2022-12-29T00:05:44.790Z,3.05
2022-12-29T00:08:18.633Z,2.90
2022-12-29T00:10:45.409Z,2.70
2022-12-29T00:13:37.923Z,2.85
2022-12-29T00:16:08.539Z,2.35
2022-12-29T00:18:35.585Z,2.42
2022-12-29T00:21:27.555Z,2.70
2022-12-29T00:24:12.884Z,2.70
2022-12-29T00:27:04.968Z,2.38
2022-12-29T00:29:51.150Z,2.35
2022-12-29T00:32:43.657Z,2.38
2022-12-29T00:35:14.124Z,2.17
2022-12-29T00:38:09.899Z,2.33
2022-12-29T00:40:55.729Z,2.20
2022-12-29T00:43:50.071Z,2.58
2022-12-29T00:46:23.685Z,2.40
2022-12-29T00:49:09.075Z,1.85
2022-12-29T00:51:42.862Z,2.10
2022-12-29T00:54:11.509Z,2.05
2022-12-29T00:56:38.716Z,1.88
2022-12-29T00:59:15.111Z,1.63
2022-12-29T01:01:43.489Z,1.75
2022-12-29T01:04:11.312Z,1.45
2022-12-29T01:06:46.785Z,1.60
2022-12-29T01:09:32.759Z,1.55
2022-12-29T01:12:08.922Z,1.70
2022-12-29T01:14:36.841Z,1.42
2022-12-29T01:17:05.017Z,1.75
2022-12-29T01:19:38.738Z,1.35
2022-12-29T01:22:10.959Z,1.30
2022-12-29T01:24:46.736Z,1.75
2022-12-29T01:27:13.483Z,1.60
2022-12-29T01:29:40.846Z,1.58
2022-12-29T01:32:19.063Z,1.52
2022-12-29T01:34:46.418Z,1.67
2022-12-29T01:37:25.905Z,1.75
2022-12-29T01:39:59.700Z,1.75
2022-12-29T01:42:27.264Z,1.60
2022-12-29T01:45:02.951Z,1.85
2022-12-29T01:47:40.391Z,1.90
2022-12-29T01:50:23.889Z,1.92
2022-12-29T01:53:07.078Z,1.95
2022-12-29T01:55:45.833Z,2.00
2022-12-29T01:58:14.212Z,1.55
2022-12-29T02:00:43.856Z,1.80
2022-12-29T02:03:23.733Z,1.50
2022-12-29T02:06:16.988Z,1.65
2022-12-29T02:08:54.741Z,2.00
2022-12-29T02:11:31.021Z,1.60
2022-12-29T02:14:00.082Z,1.88
2022-12-29T02:16:55.941Z,1.88
2022-12-29T02:19:52.857Z,1.55
2022-12-29T02:22:57.029Z,1.85
2022-12-29T02:25:42.695Z,1.98
2022-12-29T02:28:44.769Z,1.45
2022-12-29T02:31:35.302Z,1.45
2022-12-29T02:34:33.781Z,1.30
2022-12-29T02:37:17.965Z,1.40
2022-12-29T02:40:12.176Z,0.95
2022-12-29T02:43:02.810Z,1.00
2022-12-29T02:45:58.008Z,0.95
2022-12-29T02:48:45.847Z,1.13
2022-12-29T02:51:34.371Z,0.90
2022-12-29T02:54:27.078Z,1.00
2022-12-29T02:56:54.455Z,0.93
2022-12-29T02:59:22.597Z,1.20
2022-12-29T03:02:32.937Z,0.82
2022-12-29T03:05:05.955Z,0.70
2022-12-29T03:07:49.971Z,0.80
2022-12-29T03:10:31.164Z,0.90
2022-12-29T03:13:31.009Z,0.93
2022-12-29T03:16:08.130Z,0.70
2022-12-29T03:18:45.895Z,0.80
2022-12-29T03:21:50.958Z,0.65
2022-12-29T03:24:21.937Z,0.70
2022-12-29T03:26:50.448Z,0.70
2022-12-29T03:29:27.882Z,1.00
2022-12-29T03:31:56.483Z,0.90
2022-12-29T03:34:27.455Z,0.90
2022-12-29T03:37:19.866Z,0.85
2022-12-29T03:39:46.770Z,0.75
2022-12-29T03:42:28.215Z,0.77
2022-12-29T03:44:57.368Z,0.90
2022-12-29T03:47:36.938Z,0.95
2022-12-29T03:50:04.000Z,0.98
2022-12-29T03:52:36.937Z,1.10
2022-12-29T03:55:03.951Z,0.80
2022-12-29T03:57:30.837Z,0.63
2022-12-29T04:00:03.929Z,0.80
2022-12-29T04:02:31.086Z,0.90
2022-12-29T04:04:58.057Z,1.02
2022-12-29T04:07:31.940Z,1.20
2022-12-29T04:09:58.737Z,1.10
2022-12-29T04:12:25.641Z,0.95
2022-12-29T04:14:58.945Z,1.55
2022-12-29T04:17:25.754Z,1.30
2022-12-29T04:19:52.700Z,1.27
2022-12-29T04:22:26.037Z,1.40
2022-12-29T04:24:52.847Z,1.38
2022-12-29T04:27:25.964Z,1.42
2022-12-29T04:29:59.006Z,1.30
2022-12-29T04:32:25.768Z,1.45
2022-12-29T04:34:58.960Z,1.27
2022-12-29T04:37:25.736Z,1.17
2022-12-29T04:39:58.993Z,1.73
2022-12-29T04:42:31.411Z,1.10
2022-12-29T04:45:12.055Z,1.80
2022-12-29T04:47:43.793Z,1.98
2022-12-29T04:50:10.717Z,1.20
2022-12-29T04:52:43.990Z,1.00
2022-12-29T04:55:11.308Z,1.25
2022-12-29T04:57:38.088Z,1.50
2022-12-29T05:00:13.006Z,1.33
2022-12-29T05:02:46.434Z,1.60
2022-12-29T05:05:19.981Z,1.95
2022-12-29T05:07:53.027Z,1.70
2022-12-29T05:10:20.015Z,1.50
2022-12-29T05:12:46.834Z,1.83
2022-12-29T05:15:21.317Z,1.98
2022-12-29T05:17:48.176Z,1.85
2022-12-29T05:20:15.046Z,1.73
2022-12-29T05:22:54.074Z,1.88
2022-12-29T05:25:27.279Z,1.58
2022-12-29T05:27:54.038Z,2.03
2022-12-29T05:30:20.854Z,2.28
2022-12-29T05:32:54.013Z,2.30
2022-12-29T05:35:20.974Z,1.65
2022-12-29T05:37:54.045Z,1.73
2022-12-29T05:40:20.940Z,2.05
2022-12-29T05:42:48.249Z,1.88
2022-12-29T05:45:22.054Z,2.38
2022-12-29T05:47:48.780Z,1.92
2022-12-29T05:50:15.682Z,2.10
2022-12-29T05:52:54.373Z,2.33
2022-12-29T05:55:21.739Z,2.40
2022-12-29T05:57:48.604Z,1.95
2022-12-29T06:00:22.249Z,2.33
2022-12-29T06:02:49.432Z,2.55
2022-12-29T06:05:16.618Z,2.38
2022-12-29T06:07:50.097Z,2.45
2022-12-29T06:10:17.101Z,2.25
2022-12-29T06:12:57.408Z,2.95
2022-12-29T06:15:24.163Z,2.45
2022-12-29T06:17:50.960Z,2.38
2022-12-29T06:20:24.132Z,2.33
2022-12-29T06:22:50.975Z,2.20
2022-12-29T06:25:18.049Z,2.10
2022-12-29T06:33:02.236Z,2.72
2022-12-29T06:35:36.253Z,2.40
2022-12-29T06:38:03.184Z,2.20
2022-12-29T06:40:30.291Z,2.50
2022-12-29T06:43:03.147Z,2.42
2022-12-29T06:45:30.069Z,2.30
2022-12-29T06:48:02.137Z,2.05
2022-12-29T06:50:35.187Z,2.28
2022-12-29T06:53:02.135Z,2.28
2022-12-29T06:55:29.330Z,2.25
2022-12-29T06:58:06.261Z,2.72
2022-12-29T07:00:33.200Z,2.22
2022-12-29T07:03:06.643Z,2.10
2022-12-29T07:05:33.714Z,2.17
2022-12-29T07:08:01.085Z,2.40
2022-12-29T07:10:41.423Z,2.20
2022-12-29T07:13:08.855Z,1.55
2022-12-29T07:15:37.969Z,1.60
2022-12-29T07:18:12.249Z,1.77
2022-12-29T07:20:39.239Z,2.22
2022-12-29T07:23:12.215Z,1.55
2022-12-29T07:25:39.086Z,2.25
2022-12-29T07:28:12.263Z,1.58
2022-12-29T07:30:46.570Z,1.70
2022-12-29T07:33:14.671Z,1.90
2022-12-29T07:35:41.466Z,2.17
2022-12-29T07:38:16.555Z,2.20
2022-12-29T07:40:44.256Z,2.00
2022-12-29T07:43:11.083Z,1.80
2022-12-29T07:45:44.321Z,2.20
2022-12-29T07:48:17.460Z,2.22
2022-12-29T07:50:44.311Z,1.92
2022-12-29T07:53:24.577Z,2.80
2022-12-29T07:55:51.622Z,2.67
2022-12-29T07:58:19.632Z,2.45
2022-12-29T08:00:53.446Z,2.28
2022-12-29T08:03:20.465Z,2.08
2022-12-29T08:05:47.501Z,2.22
2022-12-29T08:08:21.269Z,2.33
2022-12-29T08:10:48.104Z,2.13
2022-12-29T08:13:15.324Z,2.42
2022-12-29T08:15:48.327Z,2.17
2022-12-29T08:18:21.454Z,2.60
2022-12-29T08:20:54.082Z,2.17
2022-12-29T08:23:29.757Z,2.40
2022-12-29T08:26:05.661Z,2.00
2022-12-29T08:28:40.562Z,2.08
2022-12-29T08:31:12.552Z,2.30
2022-12-29T08:33:39.514Z,2.53
2022-12-29T08:36:15.421Z,2.45
2022-12-29T08:38:42.444Z,2.20
2022-12-29T08:41:09.289Z,2.72
2022-12-29T08:43:42.406Z,2.55
2022-12-29T08:46:09.248Z,3.10
2022-12-29T08:48:36.093Z,2.30
2022-12-29T08:51:09.389Z,2.40
2022-12-29T08:53:36.502Z,2.45
2022-12-29T08:56:05.397Z,2.88
2022-12-29T08:58:40.378Z,2.90
2022-12-29T09:01:07.163Z,2.40
2022-12-29T09:06:27.346Z,2.10
2022-12-29T09:09:02.446Z,2.20
2022-12-29T09:11:35.540Z,2.20
2022-12-29T09:14:08.581Z,2.92
2022-12-29T09:16:36.502Z,2.35
2022-12-29T09:19:04.002Z,2.78
2022-12-29T09:21:37.693Z,2.33
2022-12-29T09:24:05.115Z,2.78
2022-12-29T09:26:47.174Z,1.98
2022-12-29T09:29:14.158Z,2.08
2022-12-29T09:31:40.987Z,1.88
2022-12-29T09:34:14.499Z,2.15
2022-12-29T09:36:41.779Z,1.75
2022-12-29T09:39:15.635Z,2.53
2022-12-29T09:42:05.355Z,2.25
2022-12-29T09:45:03.562Z,1.77
2022-12-29T09:47:30.976Z,2.28
2022-12-29T09:50:03.079Z,1.75
2022-12-29T09:55:15.534Z,2.35
2022-12-29T09:58:06.605Z,2.13
2022-12-29T10:00:58.629Z,1.65
2022-12-29T10:03:58.726Z,1.80
2022-12-29T10:07:19.462Z,1.98
2022-12-29T10:09:46.809Z,1.60
2022-12-29T10:12:35.435Z,1.75
2022-12-29T10:15:25.557Z,1.85
2022-12-29T10:18:17.041Z,1.83
2022-12-29T10:20:57.801Z,1.98
2022-12-29T10:23:32.323Z,2.00
2022-12-29T10:26:09.514Z,1.80
2022-12-29T10:28:55.443Z,2.03
2022-12-29T10:31:37.554Z,2.38
2022-12-29T10:34:14.588Z,2.63
2022-12-29T10:36:54.526Z,2.67
2022-12-29T10:39:33.865Z,3.35
2022-12-29T10:42:44.672Z,3.35
2022-12-29T10:45:15.674Z,3.63
2022-12-29T10:48:07.590Z,4.13
2022-12-29T10:50:34.944Z,3.27
2022-12-29T10:53:06.291Z,5.05
2022-12-29T10:55:45.720Z,4.07
2022-12-29T10:58:15.667Z,3.78
2022-12-29T11:00:44.290Z,4.60
2022-12-29T11:03:50.702Z,4.63
2022-12-29T11:06:30.234Z,3.53
2022-12-29T11:09:08.658Z,4.22
2022-12-29T11:11:37.612Z,3.90
2022-12-29T11:14:21.671Z,3.60
2022-12-29T11:17:02.834Z,3.40
2022-12-29T11:19:41.172Z,4.20
2022-12-29T11:22:36.841Z,3.72
2022-12-29T11:25:13.310Z,3.85
2022-12-29T11:27:47.642Z,3.90
2022-12-29T11:30:25.640Z,4.63
2022-12-29T11:33:00.634Z,4.05
2022-12-29T11:35:46.896Z,3.72
2022-12-29T11:38:24.432Z,4.00
2022-12-29T11:41:00.662Z,3.85
2022-12-29T11:43:39.053Z,4.18
2022-12-29T11:46:13.995Z,3.88
2022-12-29T11:48:42.591Z,4.13
2022-12-29T11:51:10.998Z,4.57
2022-12-29T11:53:56.646Z,4.82
2022-12-29T11:56:48.800Z,4.07
2022-12-29T11:59:35.288Z,4.30
2022-12-29T12:02:42.090Z,5.10
2022-12-29T12:05:38.598Z,4.35
2022-12-29T12:08:38.984Z,3.70
2022-12-29T12:11:38.860Z,3.88
2022-12-29T12:14:20.895Z,3.83
2022-12-29T12:16:54.178Z,4.35
2022-12-29T12:19:46.720Z,3.63
2022-12-29T12:22:41.702Z,3.85
2022-12-29T12:25:30.384Z,3.95
2022-12-29T12:28:22.083Z,4.10
2022-12-29T12:30:53.244Z,4.22
2022-12-29T12:33:48.964Z,3.85
2022-12-29T12:36:31.632Z,3.63
2022-12-29T12:39:13.711Z,4.43
2022-12-29T12:42:05.309Z,3.92
2022-12-29T12:44:48.891Z,3.53
2022-12-29T12:47:55.004Z,4.38
2022-12-29T12:50:31.459Z,3.47
2022-12-29T12:53:26.845Z,3.33
2022-12-29T12:56:17.791Z,3.60
2022-12-29T12:59:05.545Z,2.85
2022-12-29T13:02:38.240Z,2.92
2022-12-29T13:05:13.575Z,2.88
2022-12-29T13:08:14.907Z,3.20
2022-12-29T13:11:06.137Z,2.95
2022-12-29T13:13:57.143Z,3.00
2022-12-29T13:16:42.865Z,3.05
2022-12-29T13:19:24.893Z,3.22
2022-12-29T13:22:17.815Z,3.13
2022-12-29T13:25:14.936Z,3.72
2022-12-29T13:27:53.591Z,3.78
2022-12-29T13:30:29.796Z,3.13
2022-12-29T13:33:39.838Z,3.45
2022-12-29T13:36:17.020Z,3.17
2022-12-29T13:38:56.149Z,3.38
2022-12-29T13:41:35.807Z,2.70
2022-12-29T13:44:12.837Z,3.78
2022-12-29T13:46:43.930Z,4.40
2022-12-29T13:49:21.029Z,3.67
2022-12-29T13:51:52.959Z,3.78
2022-12-29T13:54:36.955Z,3.33
2022-12-29T13:57:12.170Z,3.17
2022-12-29T14:00:26.160Z,2.20
2022-12-29T14:03:10.131Z,1.80
2022-12-29T14:05:44.861Z,1.88
2022-12-29T14:08:26.067Z,1.70
2022-12-29T14:10:53.261Z,1.40
2022-12-29T14:13:32.915Z,1.77
2022-12-29T14:16:02.783Z,1.88
2022-12-29T14:18:48.943Z,1.30
2022-12-29T14:21:21.124Z,1.60
2022-12-29T14:26:41.955Z,1.65
2022-12-29T14:29:32.269Z,1.60
2022-12-29T14:32:01.426Z,1.20
2022-12-29T14:34:51.956Z,1.65
2022-12-29T14:37:31.370Z,1.55
2022-12-29T14:40:13.946Z,1.52
2022-12-29T14:42:53.964Z,1.85
2022-12-29T14:45:27.443Z,1.73
2022-12-29T14:48:03.090Z,2.20
2022-12-29T14:50:46.070Z,2.42
2022-12-29T14:53:50.091Z,2.42
2022-12-29T14:56:19.938Z,2.00
2022-12-29T14:59:02.152Z,2.20
2022-12-29T15:01:44.573Z,2.55
2022-12-29T15:07:04.266Z,2.13
2022-12-29T15:09:46.952Z,2.35
2022-12-29T15:15:01.067Z,1.95
2022-12-29T15:17:36.141Z,1.98
2022-12-29T15:20:32.983Z,2.05
2022-12-29T15:23:24.251Z,2.35
2022-12-29T15:26:01.126Z,2.28
2022-12-29T15:28:44.328Z,2.03
2022-12-29T15:31:29.999Z,2.83
2022-12-29T15:34:18.982Z,2.40
2022-12-29T15:36:45.836Z,2.13
2022-12-29T15:39:37.288Z,2.53
2022-12-29T15:42:15.151Z,2.05
2022-12-29T15:44:57.733Z,2.35
2022-12-29T15:47:31.618Z,2.60
2022-12-29T15:50:23.272Z,6.63
2022-12-29T15:52:50.388Z,2.22
2022-12-29T15:55:35.024Z,1.88
2022-12-29T15:58:11.021Z,2.15
2022-12-29T16:00:45.102Z,2.53
2022-12-29T16:03:21.471Z,1.90
2022-12-29T16:06:16.435Z,1.92
2022-12-29T16:09:04.032Z,2.63
2022-12-29T16:11:40.519Z,2.15
2022-12-29T16:14:17.363Z,2.20
2022-12-29T16:16:46.111Z,2.10
2022-12-29T16:19:34.073Z,2.20
2022-12-29T16:22:04.315Z,1.50
2022-12-29T16:24:40.101Z,1.92
2022-12-29T16:27:37.947Z,1.70
2022-12-29T16:30:15.094Z,3.55
2022-12-29T16:32:51.835Z,2.78
2022-12-29T16:35:30.075Z,1.83
2022-12-29T16:38:39.135Z,2.03
2022-12-29T16:41:06.098Z,1.50
2022-12-29T16:43:36.116Z,2.10
2022-12-29T16:46:09.130Z,1.73
2022-12-29T16:48:57.130Z,2.40
2022-12-29T16:51:37.480Z,1.60
2022-12-29T16:54:12.121Z,1.70
2022-12-29T16:56:44.701Z,2.08
2022-12-29T16:59:33.138Z,2.08
2022-12-29T17:02:03.179Z,1.90
2022-12-29T17:04:37.126Z,2.00
2022-12-29T17:07:25.339Z,1.85
2022-12-29T17:09:54.278Z,2.05
2022-12-29T17:12:37.151Z,1.75
2022-12-29T17:15:14.183Z,2.00
2022-12-29T17:17:48.976Z,2.20
2022-12-29T17:20:38.180Z,2.45
2022-12-29T17:23:17.535Z,2.22
2022-12-29T17:25:56.172Z,2.25
2022-12-29T17:28:37.178Z,2.47
2022-12-29T17:31:06.980Z,2.15
2022-12-29T17:33:45.184Z,2.20
2022-12-29T17:36:12.056Z,2.50
2022-12-29T17:38:45.234Z,2.15
2022-12-29T17:41:21.208Z,3.00
2022-12-29T17:43:48.131Z,3.13
2022-12-29T17:46:14.981Z,2.65
2022-12-29T17:48:56.293Z,2.28
2022-12-29T17:51:29.890Z,2.28
2022-12-29T17:54:04.243Z,2.60
2022-12-29T17:56:32.434Z,2.15
2022-12-29T17:58:59.857Z,2.40
2022-12-29T18:01:38.108Z,2.35
2022-12-29T18:04:13.234Z,2.83
2022-12-29T18:06:40.457Z,3.05
2022-12-29T18:09:17.477Z,2.67
2022-12-29T18:11:45.271Z,3.25
2022-12-29T18:14:23.233Z,10.98
2022-12-29T18:16:50.463Z,2.85
2022-12-29T18:19:24.250Z,2.92
2022-12-29T18:21:51.012Z,2.60
2022-12-29T18:24:24.295Z,3.15
2022-12-29T18:26:57.247Z,3.03
2022-12-29T18:29:24.160Z,3.40
2022-12-29T18:31:57.419Z,2.47
2022-12-29T18:34:31.279Z,3.38
2022-12-29T18:37:06.294Z,2.63
2022-12-29T18:39:33.403Z,2.78
2022-12-29T18:42:14.402Z,3.00
2022-12-29T18:44:44.441Z,2.70
2022-12-29T18:47:12.727Z,3.33
2022-12-29T18:49:46.313Z,2.72
2022-12-29T18:52:20.322Z,2.78
2022-12-29T18:54:47.139Z,2.97
2022-12-29T18:57:21.312Z,3.58
2022-12-29T18:59:54.368Z,2.53
2022-12-29T19:02:21.242Z,3.42
2022-12-29T19:05:00.891Z,2.80
2022-12-29T19:07:37.340Z,3.10
2022-12-29T19:10:11.353Z,3.10
2022-12-29T19:12:38.238Z,2.70
2022-12-29T19:15:14.373Z,3.30
2022-12-29T19:18:08.586Z,3.00
2022-12-29T19:20:49.387Z,3.70
2022-12-29T19:23:18.852Z,3.63
2022-12-29T19:25:53.379Z,4.25
2022-12-29T19:28:34.350Z,4.80
2022-12-29T19:31:02.937Z,4.30
2022-12-29T19:33:39.390Z,4.32
2022-12-29T19:36:13.431Z,3.97
2022-12-29T19:38:40.339Z,4.32
2022-12-29T19:41:07.822Z,4.25
2022-12-29T19:43:41.389Z,3.63
2022-12-29T19:46:10.459Z,3.72
2022-12-29T19:48:58.414Z,3.45
2022-12-29T19:51:32.402Z,5.30
2022-12-29T19:53:59.590Z,4.30
2022-12-29T19:56:33.522Z,4.40
2022-12-29T19:59:00.300Z,4.22
2022-12-29T20:01:34.502Z,3.60
2022-12-29T20:04:02.843Z,3.80
2022-12-29T20:06:29.702Z,4.75
2022-12-29T20:09:03.422Z,4.00
2022-12-29T20:11:30.461Z,4.15
2022-12-29T20:14:03.438Z,4.05
2022-12-29T20:16:54.761Z,4.45
2022-12-29T20:19:23.299Z,3.95
2022-12-29T20:21:56.509Z,3.90
2022-12-29T20:24:23.323Z,4.32
2022-12-29T20:26:56.435Z,4.18
2022-12-29T20:29:23.529Z,4.68
2022-12-29T20:31:57.603Z,3.83
2022-12-29T20:34:24.562Z,4.32
2022-12-29T20:36:58.526Z,3.70
2022-12-29T20:39:25.420Z,3.83
2022-12-29T20:42:06.533Z,4.07
2022-12-29T20:44:34.450Z,4.43
2022-12-29T20:47:09.468Z,4.13
2022-12-29T20:49:42.523Z,4.53
2022-12-29T20:52:21.508Z,4.18
2022-12-29T20:54:56.492Z,4.30
2022-12-29T20:57:44.588Z,4.28
2022-12-29T21:00:25.495Z,5.00
2022-12-29T21:03:05.684Z,4.75
2022-12-29T21:05:39.538Z,4.28
2022-12-29T21:08:06.819Z,3.90
2022-12-29T21:10:40.603Z,3.55
2022-12-29T21:13:11.911Z,4.38
2022-12-29T21:15:45.527Z,4.28
2022-12-29T21:18:13.768Z,3.85
2022-12-29T21:20:47.565Z,3.42
2022-12-29T21:23:21.147Z,4.45
2022-12-29T21:25:57.563Z,4.28
2022-12-29T21:28:33.715Z,3.47
2022-12-29T21:31:18.555Z,3.42
2022-12-29T21:33:45.419Z,3.15
2022-12-29T21:36:18.620Z,3.90
2022-12-29T21:38:46.001Z,4.03
2022-12-29T21:41:17.808Z,3.75
2022-12-29T21:44:10.599Z,3.30
2022-12-29T21:49:12.627Z,2.95
2022-12-29T21:51:57.670Z,4.82
2022-12-29T21:54:52.629Z,3.70
2022-12-29T21:58:02.606Z,3.45
2022-12-29T22:01:01.619Z,4.18
2022-12-29T22:03:47.472Z,3.90
2022-12-29T22:06:39.596Z,3.05
2022-12-29T22:09:31.626Z,3.38
2022-12-29T22:12:17.111Z,3.10
2022-12-29T22:14:50.590Z,2.97
2022-12-29T22:17:23.811Z,3.35
2022-12-29T22:19:59.683Z,3.97
2022-12-29T22:22:26.565Z,3.60
2022-12-29T22:24:59.681Z,3.50
2022-12-29T22:27:30.883Z,4.03
2022-12-29T22:30:04.646Z,3.33
2022-12-29T22:32:32.237Z,3.40
2022-12-29T22:35:08.033Z,3.13
2022-12-29T22:37:41.452Z,3.65
2022-12-29T22:40:17.657Z,3.08
2022-12-29T22:42:50.653Z,2.75
2022-12-29T22:45:23.654Z,3.05
2022-12-29T22:47:50.624Z,3.55
2022-12-29T22:50:23.722Z,3.13
2022-12-29T22:52:53.121Z,3.92
2022-12-29T22:55:26.720Z,3.30
2022-12-29T22:57:53.604Z,3.17
2022-12-29T23:00:26.682Z,2.85
2022-12-29T23:03:00.457Z,3.22
2022-12-29T23:05:34.839Z,3.58
2022-12-29T23:08:01.736Z,3.22
2022-12-29T23:10:28.601Z,3.17
2022-12-29T23:13:01.770Z,3.60
2022-12-29T23:15:28.504Z,3.35
2022-12-29T23:18:01.737Z,3.28
2022-12-29T23:20:28.965Z,3.15
2022-12-29T23:23:02.769Z,3.78
2022-12-29T23:25:35.786Z,3.28
2022-12-29T23:28:17.786Z,2.83
2022-12-29T23:30:44.559Z,3.90
2022-12-29T23:33:11.502Z,3.13
2022-12-29T23:35:44.727Z,3.45
2022-12-29T23:38:17.785Z,4.10
2022-12-29T23:40:50.766Z,3.10
2022-12-29T23:43:30.761Z,3.40
2022-12-29T23:46:03.804Z,2.83
2022-12-29T23:48:30.735Z,2.70
2022-12-29T23:51:03.773Z,2.88
2022-12-29T23:53:30.503Z,3.10
2022-12-29T23:56:10.955Z,3.88
2022-12-29T23:58:38.044Z,3.63
